createdAt,value
2018-12-11T00:01:07.540Z,8.83
2018-12-11T00:03:35.113Z,10.60
2018-12-11T00:06:02.718Z,6.10
2018-12-11T00:08:30.299Z,8.73
2018-12-11T00:10:58.282Z,9.60
2018-12-11T00:13:25.855Z,11.67
2018-12-11T00:15:53.421Z,7.03
2018-12-11T00:18:20.963Z,19.13
2018-12-11T00:20:48.541Z,15.57
2018-12-11T00:23:16.085Z,6.37
2018-12-11T00:25:43.664Z,11.67
2018-12-11T00:28:11.293Z,10.67
2018-12-11T00:30:38.915Z,11.40
2018-12-11T00:33:06.513Z,9.77
2018-12-11T00:35:34.079Z,13.47
2018-12-11T00:38:01.639Z,12.83
2018-12-11T00:40:29.276Z,9.70
2018-12-11T00:42:56.866Z,13.00
2018-12-11T00:45:24.450Z,8.37
2018-12-11T00:47:52.042Z,10.27
2018-12-11T00:50:19.620Z,10.77
2018-12-11T00:52:47.569Z,18.73
2018-12-11T00:55:15.132Z,6.80
2018-12-11T00:57:42.705Z,10.63
2018-12-11T01:00:10.437Z,24.17
2018-12-11T01:02:38.039Z,11.97
2018-12-11T01:05:05.705Z,20.77
2018-12-11T01:07:33.278Z,14.73
2018-12-11T01:10:00.992Z,8.20
2018-12-11T01:12:28.555Z,15.57
2018-12-11T01:14:56.145Z,10.00
2018-12-11T01:17:23.700Z,15.50
2018-12-11T01:19:51.277Z,12.03
2018-12-11T01:22:18.837Z,15.13
2018-12-11T01:24:46.932Z,14.47
2018-12-11T01:27:14.594Z,13.47
2018-12-11T01:29:42.176Z,14.53
2018-12-11T01:32:09.756Z,13.07
2018-12-11T01:34:37.341Z,19.00
2018-12-11T01:37:04.963Z,13.43
2018-12-11T01:39:33.538Z,12.87
2018-12-11T01:42:01.757Z,14.57
2018-12-11T01:44:29.341Z,8.73
2018-12-11T01:46:56.923Z,8.53
2018-12-11T01:49:24.493Z,16.83
2018-12-11T01:51:52.152Z,13.23
2018-12-11T01:54:19.734Z,14.93
2018-12-11T01:56:47.318Z,13.60
2018-12-11T01:59:14.863Z,17.30
2018-12-11T02:01:42.443Z,13.57
2018-12-11T02:04:10.029Z,14.63
2018-12-11T02:06:37.716Z,15.90
2018-12-11T02:09:06.070Z,18.10
2018-12-11T02:11:34.157Z,14.93
2018-12-11T02:14:01.702Z,21.70
2018-12-11T02:16:29.288Z,21.17
2018-12-11T02:18:56.844Z,9.43
2018-12-11T02:21:24.449Z,18.67
2018-12-11T02:23:52.024Z,19.20
2018-12-11T02:26:19.690Z,18.47
2018-12-11T02:28:47.241Z,12.10
2018-12-11T02:31:14.822Z,16.90
2018-12-11T02:33:42.416Z,20.00
2018-12-11T02:36:10.069Z,17.93
2018-12-11T02:38:37.682Z,12.30
2018-12-11T02:41:05.294Z,13.93
2018-12-11T02:43:32.867Z,13.60
2018-12-11T02:46:00.447Z,17.10
2018-12-11T02:48:28.014Z,21.10
2018-12-11T02:50:55.601Z,13.97
2018-12-11T02:53:23.194Z,14.00
2018-12-11T02:55:50.749Z,10.30
2018-12-11T02:58:18.295Z,8.80
2018-12-11T03:00:45.854Z,24.10
2018-12-11T03:03:13.453Z,16.97
2018-12-11T03:05:41.031Z,16.53
2018-12-11T03:08:08.612Z,16.23
2018-12-11T03:10:36.275Z,18.57
2018-12-11T03:13:03.924Z,13.97
2018-12-11T03:15:31.476Z,14.97
2018-12-11T03:17:59.067Z,23.43
2018-12-11T03:20:26.646Z,14.60
2018-12-11T03:22:54.213Z,15.80
2018-12-11T03:25:21.845Z,15.07
2018-12-11T03:27:49.444Z,22.27
2018-12-11T03:30:17.008Z,21.27
2018-12-11T03:32:44.619Z,14.87
2018-12-11T03:35:12.290Z,16.30
2018-12-11T03:37:39.893Z,26.20
2018-12-11T03:40:07.654Z,10.83
2018-12-11T03:42:35.248Z,13.30
2018-12-11T03:45:02.874Z,16.33
2018-12-11T03:47:30.497Z,16.30
2018-12-11T03:49:58.072Z,9.53
2018-12-11T03:52:25.670Z,17.60
2018-12-11T03:54:53.229Z,14.80
2018-12-11T03:57:20.854Z,11.17
2018-12-11T03:59:48.404Z,14.80
2018-12-11T04:02:15.960Z,16.00
2018-12-11T04:04:43.514Z,16.50
2018-12-11T04:07:11.094Z,12.73
2018-12-11T04:09:38.652Z,19.53
2018-12-11T04:12:06.532Z,15.93
2018-12-11T04:14:34.330Z,13.40
2018-12-11T04:17:01.992Z,12.57
2018-12-11T04:19:29.533Z,17.37
2018-12-11T04:21:57.110Z,17.73
2018-12-11T04:24:24.728Z,11.53
2018-12-11T04:26:52.287Z,11.60
2018-12-11T04:29:19.844Z,19.47
2018-12-11T04:31:47.443Z,18.67
2018-12-11T04:34:15.082Z,9.87
2018-12-11T04:36:42.661Z,14.67
2018-12-11T04:39:10.227Z,14.23
2018-12-11T04:41:37.810Z,14.70
2018-12-11T04:44:05.393Z,8.53
2018-12-11T04:46:32.983Z,10.17
2018-12-11T04:49:00.565Z,13.87
2018-12-11T04:51:28.105Z,7.67
2018-12-11T04:53:55.693Z,15.10
2018-12-11T04:56:23.333Z,8.40
2018-12-11T04:58:50.952Z,12.27
2018-12-11T05:01:18.586Z,10.13
2018-12-11T05:03:46.188Z,7.03
2018-12-11T05:06:13.763Z,10.93
2018-12-11T05:08:41.335Z,10.10
2018-12-11T05:11:08.947Z,14.13
2018-12-11T05:13:36.529Z,8.13
2018-12-11T05:16:04.081Z,7.80
2018-12-11T05:18:31.647Z,8.80
2018-12-11T05:20:59.239Z,11.07
2018-12-11T05:23:26.810Z,9.33
2018-12-11T05:25:54.367Z,7.90
2018-12-11T05:28:21.952Z,14.53
2018-12-11T05:30:49.491Z,10.00
2018-12-11T05:33:17.083Z,7.83
2018-12-11T05:35:44.695Z,10.50
2018-12-11T05:38:12.258Z,7.47
2018-12-11T05:40:39.811Z,8.73
2018-12-11T05:43:07.380Z,11.30
2018-12-11T05:45:34.934Z,8.60
2018-12-11T05:48:02.517Z,15.87
2018-12-11T05:50:30.113Z,8.23
2018-12-11T05:52:57.712Z,9.43
2018-12-11T05:55:25.254Z,6.43
2018-12-11T05:57:52.830Z,8.47
2018-12-11T06:00:20.418Z,12.67
2018-12-11T06:02:48.106Z,6.20
2018-12-11T06:05:15.697Z,9.30
2018-12-11T06:07:43.323Z,7.50
2018-12-11T06:10:10.935Z,5.07
2018-12-11T06:12:38.498Z,8.10
2018-12-11T06:15:06.165Z,8.73
2018-12-11T06:17:33.769Z,7.03
2018-12-11T06:20:01.363Z,5.60
2018-12-11T06:22:28.922Z,8.60
2018-12-11T06:24:56.582Z,3.07
2018-12-11T06:27:24.189Z,9.63
2018-12-11T06:29:51.828Z,3.43
2018-12-11T06:32:19.385Z,5.37
2018-12-11T06:34:46.960Z,10.03
2018-12-11T06:37:14.518Z,5.40
2018-12-11T06:39:42.100Z,4.83
2018-12-11T06:42:09.678Z,6.17
2018-12-11T06:44:37.263Z,10.57
2018-12-11T06:47:04.817Z,2.70
2018-12-11T06:49:32.404Z,3.97
2018-12-11T06:51:59.959Z,4.77
2018-12-11T06:54:27.625Z,3.60
2018-12-11T06:56:55.172Z,4.07
2018-12-11T06:59:22.714Z,3.50
2018-12-11T07:01:50.359Z,2.07
2018-12-11T07:04:17.911Z,3.93
2018-12-11T07:06:45.476Z,3.07
2018-12-11T07:09:13.034Z,4.77
2018-12-11T07:11:40.633Z,2.87
2018-12-11T07:14:08.187Z,0.47
2018-12-11T07:16:36.791Z,2.33
2018-12-11T07:19:04.583Z,2.07
2018-12-11T07:21:32.231Z,2.30
2018-12-11T07:23:59.815Z,5.20
2018-12-11T07:26:27.411Z,1.63
2018-12-11T07:28:55.064Z,4.57
2018-12-11T07:31:22.634Z,2.10
2018-12-11T07:33:50.957Z,2.40
2018-12-11T07:36:18.832Z,1.73
2018-12-11T07:38:46.416Z,6.43
2018-12-11T07:41:13.999Z,3.83
2018-12-11T07:43:41.554Z,6.07
2018-12-11T07:46:09.141Z,2.57
2018-12-11T07:48:36.686Z,3.60
2018-12-11T07:51:04.263Z,3.30
2018-12-11T07:53:31.812Z,6.10
2018-12-11T07:56:00.367Z,4.20
2018-12-11T07:58:28.202Z,5.37
2018-12-11T08:00:55.813Z,4.07
2018-12-11T08:03:23.405Z,1.87
2018-12-11T08:05:50.977Z,4.27
2018-12-11T08:08:18.555Z,5.93
2018-12-11T08:10:46.127Z,4.20
2018-12-11T08:13:13.716Z,6.37
2018-12-11T08:15:41.307Z,9.27
2018-12-11T08:18:08.878Z,3.83
2018-12-11T08:20:36.461Z,6.23
2018-12-11T08:23:04.033Z,2.27
2018-12-11T08:25:31.631Z,6.03
2018-12-11T08:27:59.205Z,2.70
2018-12-11T08:30:26.755Z,3.00
2018-12-11T08:32:54.322Z,2.73
2018-12-11T08:35:21.874Z,4.70
2018-12-11T08:37:49.515Z,2.63
2018-12-11T08:40:17.061Z,1.43
2018-12-11T08:42:44.622Z,1.30
2018-12-11T08:45:12.240Z,9.97
2018-12-11T08:47:39.820Z,1.70
2018-12-11T08:50:07.605Z,3.37
2018-12-11T08:52:35.192Z,2.37
2018-12-11T08:55:02.848Z,1.50
2018-12-11T08:57:30.409Z,2.87
2018-12-11T08:59:57.985Z,1.73
2018-12-11T09:02:25.563Z,4.30
2018-12-11T09:04:53.140Z,2.30
2018-12-11T09:07:20.734Z,3.03
2018-12-11T09:09:48.294Z,5.27
2018-12-11T09:12:15.850Z,6.23
2018-12-11T09:14:43.461Z,3.83
2018-12-11T09:17:11.008Z,7.63
2018-12-11T09:19:38.634Z,4.53
2018-12-11T09:22:06.173Z,1.70
2018-12-11T09:24:33.730Z,5.50
2018-12-11T09:27:01.291Z,5.73
2018-12-11T09:29:28.849Z,6.17
2018-12-11T09:31:56.401Z,3.83
2018-12-11T09:34:23.986Z,4.83
2018-12-11T09:36:51.568Z,5.27
2018-12-11T09:39:19.230Z,4.60
2018-12-11T09:41:46.887Z,1.77
2018-12-11T09:44:14.479Z,4.67
2018-12-11T09:46:42.140Z,3.27
2018-12-11T09:49:09.756Z,2.93
2018-12-11T09:51:37.411Z,3.17
2018-12-11T09:54:05.018Z,3.57
2018-12-11T09:56:32.604Z,5.57
2018-12-11T09:59:00.162Z,4.23
2018-12-11T10:01:27.789Z,4.17
2018-12-11T10:03:55.764Z,3.57
2018-12-11T10:06:23.400Z,2.00
2018-12-11T10:08:53.114Z,1.13
2018-12-11T10:11:20.677Z,0.67
2018-12-11T10:13:48.260Z,0.80
2018-12-11T10:16:15.875Z,3.53
2018-12-11T10:18:43.417Z,1.33
2018-12-11T10:21:11.055Z,0.90
2018-12-11T10:23:38.994Z,1.70
2018-12-11T10:26:06.581Z,0.40
2018-12-11T10:28:34.125Z,1.17
2018-12-11T10:31:01.788Z,1.43
2018-12-11T10:33:29.351Z,0.40
2018-12-11T10:35:56.914Z,1.07
2018-12-11T10:38:24.464Z,0.10
2018-12-11T10:40:52.025Z,1.70
2018-12-11T10:43:19.610Z,0.20
2018-12-11T10:45:47.173Z,0.20
2018-12-11T10:48:14.717Z,0.10
2018-12-11T10:50:42.312Z,0.30
2018-12-11T10:53:09.878Z,2.10
2018-12-11T10:55:37.454Z,0.60
2018-12-11T10:58:05.049Z,0.57
2018-12-11T11:00:38.224Z,1.30
2018-12-11T11:03:06.263Z,1.13
2018-12-11T11:05:34.055Z,0.10
2018-12-11T11:08:01.654Z,0.77
2018-12-11T11:10:29.302Z,0.30
2018-12-11T11:12:56.890Z,0.37
2018-12-11T11:15:24.519Z,0.10
2018-12-11T11:17:52.111Z,0.20
2018-12-11T11:20:19.955Z,1.40
2018-12-11T11:22:47.522Z,1.20
2018-12-11T11:25:15.117Z,2.20
2018-12-11T11:27:42.735Z,0.50
2018-12-11T11:30:10.459Z,1.03
2018-12-11T11:32:38.029Z,0.10
2018-12-11T11:35:06.082Z,1.00
2018-12-11T11:37:33.856Z,2.20
2018-12-11T11:40:01.558Z,2.03
2018-12-11T11:42:29.269Z,0.20
2018-12-11T11:44:57.192Z,0.47
2018-12-11T11:47:24.818Z,0.63
2018-12-11T11:49:52.373Z,0.50
2018-12-11T11:52:19.953Z,0.43
2018-12-11T11:54:47.630Z,0.60
2018-12-11T11:57:15.281Z,0.77
2018-12-11T11:59:42.819Z,1.07
2018-12-11T12:02:10.415Z,0.93
2018-12-11T12:04:38.043Z,0.30
2018-12-11T12:07:05.603Z,0.87
2018-12-11T12:09:33.303Z,0.27
2018-12-11T12:12:00.952Z,0.97
2018-12-11T12:14:28.573Z,0.33
2018-12-11T12:16:56.188Z,1.70
2018-12-11T12:19:23.770Z,1.97
2018-12-11T12:21:51.313Z,0.53
2018-12-11T12:24:18.914Z,1.60
2018-12-11T12:26:46.469Z,1.63
2018-12-11T12:29:14.065Z,0.40
2018-12-11T12:31:41.757Z,0.10
2018-12-11T12:34:10.151Z,0.10
2018-12-11T12:36:37.743Z,0.50
2018-12-11T12:39:07.479Z,0.30
2018-12-11T12:41:35.067Z,0.23
2018-12-11T12:44:02.688Z,1.33
2018-12-11T12:46:30.253Z,0.67
2018-12-11T12:48:57.831Z,0.53
2018-12-11T12:51:25.378Z,1.47
2018-12-11T12:53:52.973Z,2.50
2018-12-11T12:56:20.570Z,3.00
2018-12-11T12:58:48.155Z,4.43
2018-12-11T13:01:15.723Z,5.77
2018-12-11T13:03:43.652Z,3.53
2018-12-11T13:06:11.202Z,2.47
2018-12-11T13:08:38.770Z,4.30
2018-12-11T13:11:06.307Z,5.17
2018-12-11T13:13:33.911Z,3.70
2018-12-11T13:16:01.510Z,3.77
2018-12-11T13:18:29.175Z,8.97
2018-12-11T13:20:56.863Z,5.47
2018-12-11T13:23:24.445Z,5.93
2018-12-11T13:25:51.988Z,6.17
2018-12-11T13:28:19.621Z,8.27
2018-12-11T13:30:47.204Z,5.43
2018-12-11T13:33:14.741Z,4.80
2018-12-11T13:35:42.434Z,4.27
2018-12-11T13:38:09.982Z,3.47
2018-12-11T13:40:38.124Z,1.77
2018-12-11T13:43:05.917Z,5.27
2018-12-11T13:45:33.541Z,2.57
2018-12-11T13:48:01.192Z,3.13
2018-12-11T13:50:28.903Z,2.20
2018-12-11T13:52:56.447Z,5.70
2018-12-11T13:55:24.012Z,3.07
2018-12-11T13:57:51.618Z,1.43
2018-12-11T14:00:19.213Z,6.53
2018-12-11T14:02:46.769Z,3.13
2018-12-11T14:05:14.336Z,5.93
2018-12-11T14:07:41.879Z,4.53
2018-12-11T14:10:09.553Z,2.03
2018-12-11T14:12:37.173Z,5.23
2018-12-11T14:15:05.529Z,2.00
2018-12-11T14:17:33.194Z,1.47
2018-12-11T14:20:00.817Z,3.40
2018-12-11T14:22:28.477Z,1.37
2018-12-11T14:24:56.097Z,3.03
2018-12-11T14:27:24.141Z,2.47
2018-12-11T14:29:51.750Z,3.33
2018-12-11T14:32:19.398Z,1.10
2018-12-11T14:34:46.992Z,1.63
2018-12-11T14:37:14.675Z,1.43
2018-12-11T14:39:42.213Z,2.63
2018-12-11T14:42:09.826Z,2.40
2018-12-11T14:44:37.407Z,5.70
2018-12-11T14:47:04.982Z,2.87
2018-12-11T14:49:32.533Z,1.43
2018-12-11T14:52:00.159Z,5.03
2018-12-11T14:54:27.703Z,4.00
2018-12-11T14:56:55.271Z,2.57
2018-12-11T14:59:22.804Z,2.33
2018-12-11T15:01:50.424Z,6.30
2018-12-11T15:04:17.969Z,4.23
2018-12-11T15:06:45.556Z,2.00
2018-12-11T15:09:18.905Z,2.93
2018-12-11T15:11:46.491Z,1.87
2018-12-11T15:14:14.063Z,1.73
2018-12-11T15:16:41.915Z,1.67
2018-12-11T15:19:09.465Z,2.40
2018-12-11T15:21:37.036Z,4.10
2018-12-11T15:24:04.579Z,1.62
2018-12-11T15:26:32.136Z,2.77
2018-12-11T15:28:59.679Z,2.57
2018-12-11T15:31:27.323Z,1.53
2018-12-11T15:33:54.889Z,1.90
2018-12-11T15:36:22.456Z,1.30
2018-12-11T15:38:50.005Z,0.83
2018-12-11T15:41:17.620Z,1.53
2018-12-11T15:43:45.191Z,1.83
2018-12-11T15:46:12.788Z,0.57
2018-12-11T15:48:40.379Z,1.40
2018-12-11T15:51:07.995Z,1.33
2018-12-11T15:53:35.568Z,2.90
2018-12-11T15:56:03.110Z,0.73
2018-12-11T15:58:30.805Z,1.77
2018-12-11T16:00:58.377Z,0.60
2018-12-11T16:03:25.971Z,1.77
2018-12-11T16:05:53.590Z,1.37
2018-12-11T16:08:21.163Z,0.87
2018-12-11T16:10:48.718Z,1.20
2018-12-11T16:13:16.278Z,2.93
2018-12-11T16:15:43.815Z,1.57
2018-12-11T16:18:11.426Z,1.93
2018-12-11T16:20:38.977Z,3.40
2018-12-11T16:23:06.568Z,1.33
2018-12-11T16:25:34.177Z,1.90
2018-12-11T16:28:01.753Z,1.70
2018-12-11T16:30:29.321Z,1.47
2018-12-11T16:32:56.906Z,2.47
2018-12-11T16:35:24.451Z,1.27
2018-12-11T16:37:52.170Z,1.37
2018-12-11T16:40:19.807Z,3.97
2018-12-11T16:42:47.385Z,1.03
2018-12-11T16:45:15.127Z,4.93
2018-12-11T16:47:42.740Z,1.30
2018-12-11T16:50:10.400Z,1.97
2018-12-11T16:52:37.979Z,0.93
2018-12-11T16:55:05.584Z,0.63
2018-12-11T16:57:33.264Z,1.10
2018-12-11T17:00:00.850Z,1.43
2018-12-11T17:02:28.393Z,1.03
2018-12-11T17:04:55.997Z,2.50
2018-12-11T17:07:24.298Z,1.70
2018-12-11T17:09:51.889Z,2.20
2018-12-11T17:12:19.486Z,1.40
2018-12-11T17:14:47.054Z,0.70
2018-12-11T17:17:14.666Z,1.77
2018-12-11T17:19:42.369Z,1.47
2018-12-11T17:22:09.950Z,2.07
2018-12-11T17:24:37.530Z,1.13
2018-12-11T17:27:05.077Z,1.37
2018-12-11T17:29:32.739Z,1.23
2018-12-11T17:32:00.350Z,1.30
2018-12-11T17:34:28.267Z,1.07
2018-12-11T17:36:55.822Z,2.13
2018-12-11T17:39:23.577Z,0.90
2018-12-11T17:41:51.226Z,1.60
2018-12-11T17:44:18.861Z,1.53
2018-12-11T17:46:46.436Z,4.13
2018-12-11T17:49:14.051Z,1.97
2018-12-11T17:51:41.591Z,0.97
2018-12-11T17:54:09.218Z,1.23
2018-12-11T17:56:37.011Z,1.27
2018-12-11T17:59:04.637Z,0.80
2018-12-11T18:01:32.665Z,0.70
2018-12-11T18:04:00.297Z,1.93
2018-12-11T18:06:27.851Z,1.10
2018-12-11T18:08:55.738Z,0.90
2018-12-11T18:11:23.287Z,3.07
2018-12-11T18:13:50.829Z,0.83
2018-12-11T18:16:18.460Z,0.80
2018-12-11T18:18:46.023Z,1.73
2018-12-11T18:21:13.633Z,1.20
2018-12-11T18:23:41.291Z,0.60
2018-12-11T18:26:08.927Z,1.23
2018-12-11T18:28:36.468Z,2.33
2018-12-11T18:31:04.059Z,2.50
2018-12-11T18:33:31.645Z,1.70
2018-12-11T18:35:59.275Z,1.83
2018-12-11T18:38:26.986Z,16.13
2018-12-11T18:40:54.633Z,3.03
2018-12-11T18:43:22.316Z,1.47
2018-12-11T18:45:49.916Z,2.23
2018-12-11T18:48:17.514Z,3.47
2018-12-11T18:50:45.097Z,2.00
2018-12-11T18:53:12.671Z,3.03
2018-12-11T18:55:40.390Z,1.00
2018-12-11T18:58:07.954Z,1.70
2018-12-11T19:00:35.566Z,6.33
2018-12-11T19:03:03.117Z,4.70
2018-12-11T19:05:30.686Z,0.70
2018-12-11T19:07:58.446Z,0.83
2018-12-11T19:10:26.024Z,2.53
2018-12-11T19:12:53.604Z,5.77
2018-12-11T19:15:21.189Z,3.47
2018-12-11T19:17:48.905Z,1.23
2018-12-11T19:20:16.546Z,0.90
2018-12-11T19:22:44.178Z,0.87
2018-12-11T19:25:15.589Z,0.73
2018-12-11T19:27:43.716Z,1.27
2018-12-11T19:30:11.304Z,0.50
2018-12-11T19:32:38.897Z,2.07
2018-12-11T19:35:07.257Z,19.40
2018-12-11T19:37:34.852Z,6.70
2018-12-11T19:40:02.556Z,3.57
2018-12-11T19:42:30.137Z,2.07
2018-12-11T19:44:57.689Z,2.23
2018-12-11T19:47:25.287Z,1.90
2018-12-11T19:49:52.858Z,2.17
2018-12-11T19:52:20.441Z,0.90
2018-12-11T19:54:48.002Z,0.83
2018-12-11T19:57:15.582Z,0.80
2018-12-11T19:59:43.145Z,2.20
2018-12-11T20:02:10.709Z,1.40
2018-12-11T20:04:38.274Z,0.60
2018-12-11T20:07:05.867Z,1.53
2018-12-11T20:09:33.432Z,0.93
2018-12-11T20:12:01.015Z,2.03
2018-12-11T20:14:28.577Z,1.07
2018-12-11T20:16:56.185Z,0.90
2018-12-11T20:19:24.079Z,3.87
2018-12-11T20:21:51.651Z,4.93
2018-12-11T20:24:19.215Z,2.20
2018-12-11T20:26:46.804Z,0.80
2018-12-11T20:29:14.530Z,0.53
2018-12-11T20:31:42.812Z,0.47
2018-12-11T20:34:10.413Z,0.80
2018-12-11T20:36:40.935Z,1.30
2018-12-11T20:39:08.522Z,0.47
2018-12-11T20:41:36.124Z,0.50
2018-12-11T20:44:03.853Z,0.90
2018-12-11T20:46:31.455Z,0.47
2018-12-11T20:48:59.019Z,0.70
2018-12-11T20:51:26.556Z,0.60
2018-12-11T20:53:54.150Z,0.40
2018-12-11T20:56:21.698Z,0.40
2018-12-11T20:58:49.266Z,0.90
2018-12-11T21:01:16.826Z,1.27
2018-12-11T21:03:45.186Z,2.00
2018-12-11T21:06:12.846Z,3.03
2018-12-11T21:08:40.458Z,1.90
2018-12-11T21:11:08.065Z,3.23
2018-12-11T21:13:35.683Z,1.30
2018-12-11T21:16:03.236Z,0.90
2018-12-11T21:18:30.842Z,1.63
2018-12-11T21:20:58.431Z,1.60
2018-12-11T21:23:26.048Z,1.70
2018-12-11T21:25:53.614Z,0.83
2018-12-11T21:28:21.178Z,0.80
2018-12-11T21:30:48.761Z,2.00
2018-12-11T21:33:16.424Z,0.93
2018-12-11T21:35:44.044Z,1.23
2018-12-11T21:38:11.620Z,1.97
2018-12-11T21:40:39.184Z,1.00
2018-12-11T21:43:06.822Z,1.37
2018-12-11T21:45:34.425Z,1.50
2018-12-11T21:48:01.978Z,1.27
2018-12-11T21:50:29.550Z,2.40
2018-12-11T21:52:57.118Z,2.00
2018-12-11T21:55:24.671Z,2.00
2018-12-11T21:57:52.223Z,3.07
2018-12-11T22:00:19.812Z,4.47
2018-12-11T22:05:21.269Z,2.93
2018-12-11T22:07:48.834Z,2.43
2018-12-11T22:10:16.491Z,2.73
2018-12-11T22:12:44.074Z,1.93
2018-12-11T22:15:12.364Z,1.30
2018-12-11T22:17:39.988Z,3.20
2018-12-11T22:20:07.689Z,1.77
2018-12-11T22:22:35.227Z,2.47
2018-12-11T22:25:02.817Z,1.80
2018-12-11T22:27:30.406Z,3.10
2018-12-11T22:29:58.039Z,3.13
2018-12-11T22:32:25.633Z,4.10
2018-12-11T22:34:53.221Z,3.00
2018-12-11T22:37:20.773Z,2.13
2018-12-11T22:39:48.322Z,2.10
2018-12-11T22:42:15.895Z,2.20
2018-12-11T22:44:43.444Z,1.63
2018-12-11T22:47:11.025Z,1.60
2018-12-11T22:49:38.586Z,2.80
2018-12-11T22:52:06.166Z,0.87
2018-12-11T22:54:33.873Z,1.20
2018-12-11T22:57:01.459Z,4.13
2018-12-11T22:59:28.998Z,1.80
2018-12-11T23:02:01.498Z,2.43
2018-12-11T23:04:29.065Z,2.33
2018-12-11T23:06:56.624Z,1.00
2018-12-11T23:09:24.188Z,1.07
2018-12-11T23:11:51.757Z,2.37
2018-12-11T23:14:19.303Z,0.83
2018-12-11T23:16:46.865Z,1.30
2018-12-11T23:19:14.446Z,1.30
2018-12-11T23:21:42.012Z,2.40
2018-12-11T23:24:09.641Z,1.70
2018-12-11T23:26:37.214Z,1.10
2018-12-11T23:29:04.779Z,1.10
2018-12-11T23:31:32.357Z,1.27
2018-12-11T23:33:59.926Z,1.13
2018-12-11T23:36:27.518Z,2.00
2018-12-11T23:38:55.065Z,0.87
2018-12-11T23:41:23.477Z,1.33
2018-12-11T23:43:51.690Z,1.10
2018-12-11T23:46:19.288Z,0.70
2018-12-11T23:48:46.850Z,0.90
2018-12-11T23:51:14.441Z,2.80
2018-12-11T23:53:42.059Z,0.90
2018-12-11T23:56:09.637Z,1.60
2018-12-11T23:58:37.199Z,0.80
